sensor_id;sensor_type;location;lat;lon;timestamp;P1;durP1;ratioP1;P2;durP2;ratioP2
10074;SDS011;5076;42.680;23.288;2022-08-01T00:02:21;2.67;;;1.90;;
10074;SDS011;5076;42.680;23.288;2022-08-01T00:04:47;2.77;;;2.27;;
10074;SDS011;5076;42.680;23.288;2022-08-01T00:07:14;3.27;;;2.20;;
10074;SDS011;5076;42.680;23.288;2022-08-01T00:09:43;1.93;;;1.73;;
10074;SDS011;5076;42.680;23.288;2022-08-01T00:12:10;5.83;;;4.87;;
10074;SDS011;5076;42.680;23.288;2022-08-01T00:14:37;3.50;;;2.77;;
10074;SDS011;5076;42.680;23.288;2022-08-01T00:17:03;2.30;;;1.80;;
10074;SDS011;5076;42.680;23.288;2022-08-01T00:19:30;2.00;;;1.90;;
10074;SDS011;5076;42.680;23.288;2022-08-01T00:21:58;2.03;;;1.83;;
10074;SDS011;5076;42.680;23.288;2022-08-01T00:24:24;2.20;;;2.00;;
10074;SDS011;5076;42.680;23.288;2022-08-01T00:26:53;2.50;;;1.87;;
10074;SDS011;5076;42.680;23.288;2022-08-01T00:29:20;4.63;;;2.00;;
10074;SDS011;5076;42.680;23.288;2022-08-01T00:31:47;2.10;;;2.00;;
10074;SDS011;5076;42.680;23.288;2022-08-01T00:34:14;4.00;;;2.40;;
10074;SDS011;5076;42.680;23.288;2022-08-01T00:36:41;2.00;;;1.80;;
10074;SDS011;5076;42.680;23.288;2022-08-01T00:39:08;2.63;;;2.10;;
10074;SDS011;5076;42.680;23.288;2022-08-01T00:41:35;3.40;;;2.10;;
10074;SDS011;5076;42.680;23.288;2022-08-01T00:44:04;3.10;;;2.20;;
10074;SDS011;5076;42.680;23.288;2022-08-01T00:46:32;3.57;;;2.03;;
10074;SDS011;5076;42.680;23.288;2022-08-01T00:48:59;3.73;;;1.90;;
10074;SDS011;5076;42.680;23.288;2022-08-01T00:51:27;3.30;;;2.50;;
10074;SDS011;5076;42.680;23.288;2022-08-01T00:53:55;2.60;;;2.40;;
10074;SDS011;5076;42.680;23.288;2022-08-01T00:56:23;2.63;;;2.43;;
10074;SDS011;5076;42.680;23.288;2022-08-01T00:58:52;2.87;;;2.67;;
10074;SDS011;5076;42.680;23.288;2022-08-01T01:01:20;3.10;;;2.80;;
10074;SDS011;5076;42.680;23.288;2022-08-01T01:03:47;4.30;;;3.20;;
10074;SDS011;5076;42.680;23.288;2022-08-01T01:06:19;3.00;;;2.80;;
10074;SDS011;5076;42.680;23.288;2022-08-01T01:08:54;2.80;;;2.60;;
10074;SDS011;5076;42.680;23.288;2022-08-01T01:11:36;3.10;;;2.90;;
10074;SDS011;5076;42.680;23.288;2022-08-01T01:14:13;2.93;;;2.73;;
10074;SDS011;5076;42.680;23.288;2022-08-01T01:16:48;3.10;;;2.80;;
10074;SDS011;5076;42.680;23.288;2022-08-01T01:19:20;3.63;;;2.50;;
10074;SDS011;5076;42.680;23.288;2022-08-01T01:22:12;2.53;;;2.33;;
10074;SDS011;5076;42.680;23.288;2022-08-01T01:25:02;2.73;;;2.20;;
10074;SDS011;5076;42.680;23.288;2022-08-01T01:27:47;2.37;;;2.17;;
10074;SDS011;5076;42.680;23.288;2022-08-01T01:30:19;2.27;;;1.90;;
10074;SDS011;5076;42.680;23.288;2022-08-01T01:32:50;2.07;;;1.87;;
10074;SDS011;5076;42.680;23.288;2022-08-01T01:35:21;2.00;;;1.77;;
10074;SDS011;5076;42.680;23.288;2022-08-01T01:37:52;2.00;;;1.90;;
10074;SDS011;5076;42.680;23.288;2022-08-01T01:40:22;2.60;;;1.73;;
10074;SDS011;5076;42.680;23.288;2022-08-01T01:42:51;2.43;;;1.50;;
10074;SDS011;5076;42.680;23.288;2022-08-01T01:45:21;2.47;;;1.67;;
10074;SDS011;5076;42.680;23.288;2022-08-01T01:47:50;1.50;;;1.40;;
10074;SDS011;5076;42.680;23.288;2022-08-01T01:50:19;1.60;;;1.50;;
10074;SDS011;5076;42.680;23.288;2022-08-01T01:52:47;3.70;;;1.60;;
10074;SDS011;5076;42.680;23.288;2022-08-01T01:55:16;6.40;;;1.87;;
10074;SDS011;5076;42.680;23.288;2022-08-01T01:57:45;1.60;;;1.37;;
10074;SDS011;5076;42.680;23.288;2022-08-01T02:00:13;1.20;;;1.10;;
10074;SDS011;5076;42.680;23.288;2022-08-01T02:02:43;1.40;;;1.30;;
10074;SDS011;5076;42.680;23.288;2022-08-01T02:05:11;1.73;;;1.50;;
10074;SDS011;5076;42.680;23.288;2022-08-01T02:07:39;2.37;;;1.50;;
10074;SDS011;5076;42.680;23.288;2022-08-01T02:10:08;1.33;;;1.23;;
10074;SDS011;5076;42.680;23.288;2022-08-01T02:12:37;3.63;;;1.50;;
10074;SDS011;5076;42.680;23.288;2022-08-01T02:15:08;2.67;;;1.47;;
10074;SDS011;5076;42.680;23.288;2022-08-01T02:17:39;4.03;;;1.27;;
10074;SDS011;5076;42.680;23.288;2022-08-01T02:20:10;1.67;;;1.50;;
10074;SDS011;5076;42.680;23.288;2022-08-01T02:22:40;2.70;;;1.97;;
10074;SDS011;5076;42.680;23.288;2022-08-01T02:25:11;1.83;;;1.60;;
10074;SDS011;5076;42.680;23.288;2022-08-01T02:27:45;1.93;;;1.33;;
10074;SDS011;5076;42.680;23.288;2022-08-01T02:30:20;2.33;;;1.30;;
10074;SDS011;5076;42.680;23.288;2022-08-01T02:32:51;1.40;;;1.30;;
10074;SDS011;5076;42.680;23.288;2022-08-01T02:35:32;2.90;;;1.43;;
10074;SDS011;5076;42.680;23.288;2022-08-01T02:38:02;1.53;;;1.30;;
10074;SDS011;5076;42.680;23.288;2022-08-01T02:40:31;1.40;;;1.30;;
10074;SDS011;5076;42.680;23.288;2022-08-01T02:42:59;1.30;;;1.20;;
10074;SDS011;5076;42.680;23.288;2022-08-01T02:45:28;1.40;;;1.30;;
10074;SDS011;5076;42.680;23.288;2022-08-01T02:48:00;1.50;;;1.40;;
10074;SDS011;5076;42.680;23.288;2022-08-01T02:50:32;1.83;;;1.20;;
10074;SDS011;5076;42.680;23.288;2022-08-01T02:53:00;1.50;;;1.40;;
10074;SDS011;5076;42.680;23.288;2022-08-01T02:55:30;1.97;;;1.10;;
10074;SDS011;5076;42.680;23.288;2022-08-01T02:57:59;3.23;;;1.57;;
10074;SDS011;5076;42.680;23.288;2022-08-01T03:00:27;3.03;;;1.27;;
10074;SDS011;5076;42.680;23.288;2022-08-01T03:02:56;2.27;;;1.37;;
10074;SDS011;5076;42.680;23.288;2022-08-01T03:05:25;2.80;;;1.70;;
10074;SDS011;5076;42.680;23.288;2022-08-01T03:07:53;3.23;;;2.10;;
10074;SDS011;5076;42.680;23.288;2022-08-01T03:10:23;3.00;;;1.40;;
10074;SDS011;5076;42.680;23.288;2022-08-01T03:12:53;3.17;;;2.87;;
10074;SDS011;5076;42.680;23.288;2022-08-01T03:15:21;2.53;;;2.13;;
10074;SDS011;5076;42.680;23.288;2022-08-01T03:17:51;4.17;;;2.90;;
10074;SDS011;5076;42.680;23.288;2022-08-01T03:20:22;4.70;;;2.30;;
10074;SDS011;5076;42.680;23.288;2022-08-01T03:22:51;2.57;;;2.03;;
10074;SDS011;5076;42.680;23.288;2022-08-01T03:25:20;2.27;;;2.07;;
10074;SDS011;5076;42.680;23.288;2022-08-01T03:27:50;4.80;;;2.37;;
10074;SDS011;5076;42.680;23.288;2022-08-01T03:30:21;2.53;;;2.00;;
10074;SDS011;5076;42.680;23.288;2022-08-01T03:32:50;2.53;;;2.07;;
10074;SDS011;5076;42.680;23.288;2022-08-01T03:35:17;4.60;;;2.47;;
10074;SDS011;5076;42.680;23.288;2022-08-01T03:37:46;2.77;;;2.23;;
10074;SDS011;5076;42.680;23.288;2022-08-01T03:40:17;3.70;;;2.50;;
10074;SDS011;5076;42.680;23.288;2022-08-01T03:42:50;5.23;;;2.50;;
10074;SDS011;5076;42.680;23.288;2022-08-01T03:45:22;4.73;;;2.20;;
10074;SDS011;5076;42.680;23.288;2022-08-01T03:47:53;2.57;;;2.17;;
10074;SDS011;5076;42.680;23.288;2022-08-01T03:50:25;5.07;;;2.80;;
10074;SDS011;5076;42.680;23.288;2022-08-01T03:52:54;6.60;;;3.10;;
10074;SDS011;5076;42.680;23.288;2022-08-01T03:55:25;2.47;;;2.27;;
10074;SDS011;5076;42.680;23.288;2022-08-01T03:57:53;2.60;;;1.87;;
10074;SDS011;5076;42.680;23.288;2022-08-01T04:00:21;4.13;;;2.73;;
10074;SDS011;5076;42.680;23.288;2022-08-01T04:02:49;4.17;;;2.90;;
10074;SDS011;5076;42.680;23.288;2022-08-01T04:05:17;4.03;;;2.33;;
10074;SDS011;5076;42.680;23.288;2022-08-01T04:07:45;4.57;;;2.60;;
10074;SDS011;5076;42.680;23.288;2022-08-01T04:10:14;7.63;;;2.90;;
10074;SDS011;5076;42.680;23.288;2022-08-01T04:12:41;3.07;;;2.83;;
10074;SDS011;5076;42.680;23.288;2022-08-01T04:15:08;3.67;;;2.83;;
10074;SDS011;5076;42.680;23.288;2022-08-01T04:17:35;3.43;;;2.80;;
10074;SDS011;5076;42.680;23.288;2022-08-01T04:20:02;3.93;;;2.97;;
10074;SDS011;5076;42.680;23.288;2022-08-01T04:22:29;5.23;;;3.10;;
10074;SDS011;5076;42.680;23.288;2022-08-01T04:24:56;3.30;;;2.67;;
10074;SDS011;5076;42.680;23.288;2022-08-01T04:27:28;4.23;;;3.20;;
10074;SDS011;5076;42.680;23.288;2022-08-01T04:29:58;5.17;;;2.60;;
10074;SDS011;5076;42.680;23.288;2022-08-01T04:32:26;5.13;;;2.67;;
10074;SDS011;5076;42.680;23.288;2022-08-01T04:34:56;6.20;;;3.00;;
10074;SDS011;5076;42.680;23.288;2022-08-01T04:37:26;4.00;;;3.10;;
10074;SDS011;5076;42.680;23.288;2022-08-01T04:39:55;4.30;;;3.13;;
10074;SDS011;5076;42.680;23.288;2022-08-01T04:42:24;4.80;;;3.10;;
10074;SDS011;5076;42.680;23.288;2022-08-01T04:44:54;5.30;;;3.33;;
10074;SDS011;5076;42.680;23.288;2022-08-01T04:47:21;6.67;;;4.30;;
10074;SDS011;5076;42.680;23.288;2022-08-01T04:49:49;6.73;;;4.23;;
10074;SDS011;5076;42.680;23.288;2022-08-01T04:52:16;8.57;;;5.13;;
10074;SDS011;5076;42.680;23.288;2022-08-01T04:54:44;6.63;;;4.33;;
10074;SDS011;5076;42.680;23.288;2022-08-01T04:57:11;5.20;;;3.93;;
10074;SDS011;5076;42.680;23.288;2022-08-01T04:59:41;8.20;;;4.67;;
10074;SDS011;5076;42.680;23.288;2022-08-01T05:02:13;5.33;;;4.80;;
10074;SDS011;5076;42.680;23.288;2022-08-01T05:04:41;6.43;;;4.73;;
10074;SDS011;5076;42.680;23.288;2022-08-01T05:07:09;6.43;;;4.83;;
10074;SDS011;5076;42.680;23.288;2022-08-01T05:09:37;7.53;;;4.97;;
10074;SDS011;5076;42.680;23.288;2022-08-01T05:12:06;10.23;;;5.37;;
10074;SDS011;5076;42.680;23.288;2022-08-01T05:14:36;8.10;;;4.80;;
10074;SDS011;5076;42.680;23.288;2022-08-01T05:17:03;11.83;;;5.47;;
10074;SDS011;5076;42.680;23.288;2022-08-01T05:19:33;6.60;;;4.53;;
10074;SDS011;5076;42.680;23.288;2022-08-01T05:22:02;4.70;;;3.50;;
10074;SDS011;5076;42.680;23.288;2022-08-01T05:24:30;5.37;;;4.00;;
10074;SDS011;5076;42.680;23.288;2022-08-01T05:26:58;8.03;;;4.20;;
10074;SDS011;5076;42.680;23.288;2022-08-01T05:29:25;5.67;;;4.30;;
10074;SDS011;5076;42.680;23.288;2022-08-01T05:31:53;5.00;;;4.10;;
10074;SDS011;5076;42.680;23.288;2022-08-01T05:34:20;8.37;;;4.10;;
10074;SDS011;5076;42.680;23.288;2022-08-01T05:36:49;9.37;;;4.27;;
10074;SDS011;5076;42.680;23.288;2022-08-01T05:39:16;7.17;;;3.93;;
10074;SDS011;5076;42.680;23.288;2022-08-01T05:41:43;3.30;;;2.37;;
10074;SDS011;5076;42.680;23.288;2022-08-01T05:44:10;6.83;;;2.97;;
10074;SDS011;5076;42.680;23.288;2022-08-01T05:46:37;5.67;;;2.30;;
10074;SDS011;5076;42.680;23.288;2022-08-01T05:49:04;3.70;;;2.27;;
10074;SDS011;5076;42.680;23.288;2022-08-01T05:51:31;3.53;;;1.50;;
10074;SDS011;5076;42.680;23.288;2022-08-01T05:54:00;4.67;;;2.23;;
10074;SDS011;5076;42.680;23.288;2022-08-01T05:56:27;4.33;;;2.47;;
10074;SDS011;5076;42.680;23.288;2022-08-01T05:58:54;3.20;;;1.77;;
10074;SDS011;5076;42.680;23.288;2022-08-01T06:01:21;4.13;;;1.50;;
10074;SDS011;5076;42.680;23.288;2022-08-01T06:03:48;4.03;;;1.50;;
10074;SDS011;5076;42.680;23.288;2022-08-01T06:06:15;1.50;;;1.40;;
10074;SDS011;5076;42.680;23.288;2022-08-01T06:08:42;3.03;;;1.63;;
10074;SDS011;5076;42.680;23.288;2022-08-01T06:11:10;1.90;;;1.73;;
10074;SDS011;5076;42.680;23.288;2022-08-01T06:13:37;5.27;;;1.40;;
10074;SDS011;5076;42.680;23.288;2022-08-01T06:16:04;1.73;;;1.40;;
10074;SDS011;5076;42.680;23.288;2022-08-01T06:18:31;3.00;;;1.60;;
10074;SDS011;5076;42.680;23.288;2022-08-01T06:20:58;6.10;;;1.53;;
10074;SDS011;5076;42.680;23.288;2022-08-01T06:23:25;2.30;;;1.67;;
10074;SDS011;5076;42.680;23.288;2022-08-01T06:25:52;2.80;;;1.67;;
10074;SDS011;5076;42.680;23.288;2022-08-01T06:28:21;3.40;;;1.57;;
10074;SDS011;5076;42.680;23.288;2022-08-01T06:30:48;2.77;;;1.53;;
10074;SDS011;5076;42.680;23.288;2022-08-01T06:33:15;5.10;;;1.40;;
10074;SDS011;5076;42.680;23.288;2022-08-01T06:35:42;1.67;;;1.53;;
10074;SDS011;5076;42.680;23.288;2022-08-01T06:38:09;2.30;;;1.50;;
10074;SDS011;5076;42.680;23.288;2022-08-01T06:40:39;1.60;;;1.47;;
10074;SDS011;5076;42.680;23.288;2022-08-01T06:43:06;3.33;;;1.70;;
10074;SDS011;5076;42.680;23.288;2022-08-01T06:45:34;4.87;;;1.67;;
10074;SDS011;5076;42.680;23.288;2022-08-01T06:48:01;2.03;;;1.67;;
10074;SDS011;5076;42.680;23.288;2022-08-01T06:50:29;1.80;;;1.70;;
10074;SDS011;5076;42.680;23.288;2022-08-01T06:52:56;1.83;;;1.73;;
10074;SDS011;5076;42.680;23.288;2022-08-01T06:55:23;3.63;;;1.90;;
10074;SDS011;5076;42.680;23.288;2022-08-01T06:57:50;2.70;;;1.50;;
10074;SDS011;5076;42.680;23.288;2022-08-01T07:00:19;1.70;;;1.50;;
10074;SDS011;5076;42.680;23.288;2022-08-01T07:02:49;2.30;;;1.60;;
10074;SDS011;5076;42.680;23.288;2022-08-01T07:05:16;3.03;;;1.50;;
10074;SDS011;5076;42.680;23.288;2022-08-01T07:07:43;2.40;;;1.87;;
10074;SDS011;5076;42.680;23.288;2022-08-01T07:10:10;7.30;;;1.80;;
10074;SDS011;5076;42.680;23.288;2022-08-01T07:12:38;4.63;;;2.17;;
10074;SDS011;5076;42.680;23.288;2022-08-01T07:15:06;2.00;;;1.80;;
10074;SDS011;5076;42.680;23.288;2022-08-01T07:17:36;2.67;;;1.93;;
10074;SDS011;5076;42.680;23.288;2022-08-01T07:20:06;1.80;;;1.67;;
10074;SDS011;5076;42.680;23.288;2022-08-01T07:22:34;2.53;;;1.87;;
10074;SDS011;5076;42.680;23.288;2022-08-01T07:25:03;2.67;;;1.77;;
10074;SDS011;5076;42.680;23.288;2022-08-01T07:27:31;1.87;;;1.50;;
10074;SDS011;5076;42.680;23.288;2022-08-01T07:29:58;2.10;;;1.90;;
10074;SDS011;5076;42.680;23.288;2022-08-01T07:32:25;2.33;;;1.70;;
10074;SDS011;5076;42.680;23.288;2022-08-01T07:34:52;2.40;;;1.90;;
10074;SDS011;5076;42.680;23.288;2022-08-01T07:37:20;5.17;;;1.80;;
10074;SDS011;5076;42.680;23.288;2022-08-01T07:39:48;4.40;;;2.17;;
10074;SDS011;5076;42.680;23.288;2022-08-01T07:42:15;2.50;;;1.87;;
10074;SDS011;5076;42.680;23.288;2022-08-01T07:44:42;3.07;;;1.70;;
10074;SDS011;5076;42.680;23.288;2022-08-01T07:47:09;3.20;;;1.73;;
10074;SDS011;5076;42.680;23.288;2022-08-01T07:49:36;1.70;;;1.60;;
10074;SDS011;5076;42.680;23.288;2022-08-01T07:52:04;4.40;;;1.97;;
10074;SDS011;5076;42.680;23.288;2022-08-01T07:54:32;2.10;;;1.73;;
10074;SDS011;5076;42.680;23.288;2022-08-01T07:56:59;2.80;;;1.90;;
10074;SDS011;5076;42.680;23.288;2022-08-01T07:59:26;2.47;;;1.83;;
10074;SDS011;5076;42.680;23.288;2022-08-01T08:01:53;2.73;;;1.67;;
10074;SDS011;5076;42.680;23.288;2022-08-01T08:04:21;2.50;;;1.80;;
10074;SDS011;5076;42.680;23.288;2022-08-01T08:06:48;3.37;;;2.13;;
10074;SDS011;5076;42.680;23.288;2022-08-01T08:09:15;2.90;;;1.80;;
10074;SDS011;5076;42.680;23.288;2022-08-01T08:11:44;1.93;;;1.50;;
10074;SDS011;5076;42.680;23.288;2022-08-01T08:14:11;2.13;;;1.90;;
10074;SDS011;5076;42.680;23.288;2022-08-01T08:16:38;2.37;;;1.73;;
10074;SDS011;5076;42.680;23.288;2022-08-01T08:19:05;3.50;;;1.93;;
10074;SDS011;5076;42.680;23.288;2022-08-01T08:21:32;1.90;;;1.60;;
10074;SDS011;5076;42.680;23.288;2022-08-01T08:23:59;5.10;;;2.10;;
10074;SDS011;5076;42.680;23.288;2022-08-01T08:26:44;4.03;;;1.70;;
10074;SDS011;5076;42.680;23.288;2022-08-01T08:29:12;3.03;;;1.60;;
10074;SDS011;5076;42.680;23.288;2022-08-01T08:31:39;2.60;;;2.13;;
10074;SDS011;5076;42.680;23.288;2022-08-01T08:34:06;2.10;;;1.83;;
10074;SDS011;5076;42.680;23.288;2022-08-01T08:36:33;3.13;;;2.03;;
10074;SDS011;5076;42.680;23.288;2022-08-01T08:39:00;4.17;;;2.10;;
10074;SDS011;5076;42.680;23.288;2022-08-01T08:41:28;2.97;;;1.50;;
10074;SDS011;5076;42.680;23.288;2022-08-01T08:43:57;2.50;;;1.70;;
10074;SDS011;5076;42.680;23.288;2022-08-01T08:46:25;3.60;;;1.80;;
10074;SDS011;5076;42.680;23.288;2022-08-01T08:48:53;6.27;;;1.90;;
10074;SDS011;5076;42.680;23.288;2022-08-01T08:51:21;2.00;;;1.70;;
10074;SDS011;5076;42.680;23.288;2022-08-01T08:53:52;1.57;;;1.47;;
10074;SDS011;5076;42.680;23.288;2022-08-01T08:56:21;2.57;;;1.30;;
10074;SDS011;5076;42.680;23.288;2022-08-01T08:58:51;2.40;;;1.40;;
10074;SDS011;5076;42.680;23.288;2022-08-01T09:01:20;3.93;;;1.97;;
10074;SDS011;5076;42.680;23.288;2022-08-01T09:03:47;1.90;;;1.47;;
10074;SDS011;5076;42.680;23.288;2022-08-01T09:06:14;2.30;;;1.97;;
10074;SDS011;5076;42.680;23.288;2022-08-01T09:08:41;1.57;;;1.47;;
10074;SDS011;5076;42.680;23.288;2022-08-01T09:11:08;2.10;;;1.90;;
10074;SDS011;5076;42.680;23.288;2022-08-01T09:13:35;1.43;;;1.33;;
10074;SDS011;5076;42.680;23.288;2022-08-01T09:16:02;1.90;;;1.60;;
10074;SDS011;5076;42.680;23.288;2022-08-01T09:18:33;1.90;;;1.57;;
10074;SDS011;5076;42.680;23.288;2022-08-01T09:21:08;2.53;;;1.60;;
10074;SDS011;5076;42.680;23.288;2022-08-01T09:23:36;2.40;;;1.60;;
10074;SDS011;5076;42.680;23.288;2022-08-01T09:26:07;2.57;;;1.40;;
10074;SDS011;5076;42.680;23.288;2022-08-01T09:28:36;2.67;;;1.90;;
10074;SDS011;5076;42.680;23.288;2022-08-01T09:31:07;2.70;;;1.70;;
10074;SDS011;5076;42.680;23.288;2022-08-01T09:33:51;1.60;;;1.50;;
10074;SDS011;5076;42.680;23.288;2022-08-01T09:36:19;2.13;;;1.93;;
10074;SDS011;5076;42.680;23.288;2022-08-01T09:38:47;2.00;;;1.80;;
10074;SDS011;5076;42.680;23.288;2022-08-01T09:41:15;2.47;;;1.40;;
10074;SDS011;5076;42.680;23.288;2022-08-01T09:43:47;1.67;;;1.57;;
10074;SDS011;5076;42.680;23.288;2022-08-01T09:46:16;1.70;;;1.60;;
10074;SDS011;5076;42.680;23.288;2022-08-01T09:48:56;1.47;;;1.37;;
10074;SDS011;5076;42.680;23.288;2022-08-01T09:51:29;2.03;;;1.40;;
10074;SDS011;5076;42.680;23.288;2022-08-01T09:53:57;2.07;;;1.87;;
10074;SDS011;5076;42.680;23.288;2022-08-01T09:56:25;1.60;;;1.50;;
10074;SDS011;5076;42.680;23.288;2022-08-01T09:58:53;3.40;;;1.80;;
10074;SDS011;5076;42.680;23.288;2022-08-01T10:01:22;2.50;;;2.00;;
10074;SDS011;5076;42.680;23.288;2022-08-01T10:04:07;1.60;;;1.50;;
10074;SDS011;5076;42.680;23.288;2022-08-01T10:06:36;2.63;;;1.80;;
10074;SDS011;5076;42.680;23.288;2022-08-01T10:09:03;1.70;;;1.60;;
10074;SDS011;5076;42.680;23.288;2022-08-01T10:11:30;2.67;;;2.13;;
10074;SDS011;5076;42.680;23.288;2022-08-01T10:13:58;3.07;;;1.90;;
10074;SDS011;5076;42.680;23.288;2022-08-01T10:16:27;2.00;;;1.80;;
10074;SDS011;5076;42.680;23.288;2022-08-01T10:18:55;2.57;;;1.83;;
10074;SDS011;5076;42.680;23.288;2022-08-01T10:21:24;1.97;;;1.70;;
10074;SDS011;5076;42.680;23.288;2022-08-01T10:23:53;1.80;;;1.70;;
10074;SDS011;5076;42.680;23.288;2022-08-01T10:26:24;3.50;;;1.80;;
10074;SDS011;5076;42.680;23.288;2022-08-01T10:28:52;2.60;;;1.70;;
10074;SDS011;5076;42.680;23.288;2022-08-01T10:31:20;3.47;;;2.10;;
10074;SDS011;5076;42.680;23.288;2022-08-01T10:33:47;1.80;;;1.37;;
10074;SDS011;5076;42.680;23.288;2022-08-01T10:36:17;3.77;;;1.60;;
10074;SDS011;5076;42.680;23.288;2022-08-01T10:38:47;2.70;;;1.70;;
10074;SDS011;5076;42.680;23.288;2022-08-01T10:41:17;1.87;;;1.67;;
10074;SDS011;5076;42.680;23.288;2022-08-01T10:43:45;1.97;;;1.50;;
10074;SDS011;5076;42.680;23.288;2022-08-01T10:46:12;1.50;;;1.40;;
10074;SDS011;5076;42.680;23.288;2022-08-01T10:48:41;4.57;;;1.93;;
10074;SDS011;5076;42.680;23.288;2022-08-01T10:51:13;2.43;;;1.50;;
10074;SDS011;5076;42.680;23.288;2022-08-01T10:53:45;1.43;;;1.20;;
10074;SDS011;5076;42.680;23.288;2022-08-01T10:56:14;2.30;;;1.47;;
10074;SDS011;5076;42.680;23.288;2022-08-01T10:58:42;1.97;;;1.50;;
10074;SDS011;5076;42.680;23.288;2022-08-01T11:01:19;3.40;;;1.73;;
10074;SDS011;5076;42.680;23.288;2022-08-01T11:03:58;2.63;;;1.73;;
10074;SDS011;5076;42.680;23.288;2022-08-01T11:06:35;1.70;;;1.60;;
10074;SDS011;5076;42.680;23.288;2022-08-01T11:09:16;1.50;;;1.40;;
10074;SDS011;5076;42.680;23.288;2022-08-01T11:11:56;2.73;;;1.63;;
10074;SDS011;5076;42.680;23.288;2022-08-01T11:14:24;3.93;;;1.73;;
10074;SDS011;5076;42.680;23.288;2022-08-01T11:16:51;2.37;;;1.60;;
10074;SDS011;5076;42.680;23.288;2022-08-01T11:19:18;1.93;;;1.73;;
10074;SDS011;5076;42.680;23.288;2022-08-01T11:21:58;2.13;;;1.60;;
10074;SDS011;5076;42.680;23.288;2022-08-01T11:27:24;1.97;;;1.30;;
10074;SDS011;5076;42.680;23.288;2022-08-01T11:32:52;2.03;;;1.50;;
10074;SDS011;5076;42.680;23.288;2022-08-01T11:35:20;2.47;;;1.80;;
10074;SDS011;5076;42.680;23.288;2022-08-01T11:37:48;1.43;;;1.33;;
10074;SDS011;5076;42.680;23.288;2022-08-01T11:40:19;1.50;;;1.40;;
10074;SDS011;5076;42.680;23.288;2022-08-01T11:42:48;4.33;;;1.60;;
10074;SDS011;5076;42.680;23.288;2022-08-01T11:45:16;3.20;;;1.87;;
10074;SDS011;5076;42.680;23.288;2022-08-01T11:47:43;3.23;;;2.13;;
10074;SDS011;5076;42.680;23.288;2022-08-01T11:52:59;1.80;;;1.40;;
10074;SDS011;5076;42.680;23.288;2022-08-01T11:55:28;1.43;;;1.33;;
10074;SDS011;5076;42.680;23.288;2022-08-01T11:57:59;1.77;;;1.50;;
10074;SDS011;5076;42.680;23.288;2022-08-01T12:00:27;2.00;;;1.67;;
10074;SDS011;5076;42.680;23.288;2022-08-01T12:02:59;2.40;;;1.80;;
10074;SDS011;5076;42.680;23.288;2022-08-01T12:05:28;3.50;;;1.57;;
10074;SDS011;5076;42.680;23.288;2022-08-01T12:07:57;1.63;;;1.53;;
10074;SDS011;5076;42.680;23.288;2022-08-01T12:10:24;2.60;;;1.77;;
10074;SDS011;5076;42.680;23.288;2022-08-01T12:12:54;1.80;;;1.70;;
10074;SDS011;5076;42.680;23.288;2022-08-01T12:15:23;2.03;;;1.83;;
10074;SDS011;5076;42.680;23.288;2022-08-01T12:17:51;2.03;;;1.60;;
10074;SDS011;5076;42.680;23.288;2022-08-01T12:20:22;3.10;;;1.90;;
10074;SDS011;5076;42.680;23.288;2022-08-01T12:22:52;1.70;;;1.60;;
10074;SDS011;5076;42.680;23.288;2022-08-01T12:25:20;1.77;;;1.60;;
10074;SDS011;5076;42.680;23.288;2022-08-01T12:27:47;2.20;;;2.00;;
10074;SDS011;5076;42.680;23.288;2022-08-01T12:30:16;2.00;;;1.80;;
10074;SDS011;5076;42.680;23.288;2022-08-01T12:32:44;2.73;;;1.60;;
10074;SDS011;5076;42.680;23.288;2022-08-01T12:35:13;2.73;;;1.70;;
10074;SDS011;5076;42.680;23.288;2022-08-01T12:37:41;1.60;;;1.50;;
10074;SDS011;5076;42.680;23.288;2022-08-01T12:40:10;2.67;;;1.70;;
10074;SDS011;5076;42.680;23.288;2022-08-01T12:42:40;2.37;;;1.70;;
10074;SDS011;5076;42.680;23.288;2022-08-01T12:45:08;2.10;;;1.77;;
10074;SDS011;5076;42.680;23.288;2022-08-01T12:47:37;4.13;;;1.60;;
10074;SDS011;5076;42.680;23.288;2022-08-01T12:50:05;1.73;;;1.50;;
10074;SDS011;5076;42.680;23.288;2022-08-01T12:52:34;2.10;;;1.60;;
10074;SDS011;5076;42.680;23.288;2022-08-01T12:55:05;2.10;;;1.67;;
10074;SDS011;5076;42.680;23.288;2022-08-01T12:57:34;2.53;;;1.90;;
10074;SDS011;5076;42.680;23.288;2022-08-01T13:00:06;2.87;;;1.57;;
10074;SDS011;5076;42.680;23.288;2022-08-01T13:02:35;4.13;;;1.70;;
10074;SDS011;5076;42.680;23.288;2022-08-01T13:05:04;1.90;;;1.80;;
10074;SDS011;5076;42.680;23.288;2022-08-01T13:07:38;4.07;;;2.23;;
10074;SDS011;5076;42.680;23.288;2022-08-01T13:10:08;1.97;;;1.43;;
10074;SDS011;5076;42.680;23.288;2022-08-01T13:12:35;1.80;;;1.30;;
10074;SDS011;5076;42.680;23.288;2022-08-01T13:15:16;1.93;;;1.60;;
10074;SDS011;5076;42.680;23.288;2022-08-01T13:17:44;2.57;;;1.60;;
10074;SDS011;5076;42.680;23.288;2022-08-01T13:20:21;2.03;;;1.50;;
10074;SDS011;5076;42.680;23.288;2022-08-01T13:22:49;2.08;;;1.55;;
10074;SDS011;5076;42.680;23.288;2022-08-01T13:25:17;2.70;;;1.40;;
10074;SDS011;5076;42.680;23.288;2022-08-01T13:27:44;1.75;;;1.65;;
10074;SDS011;5076;42.680;23.288;2022-08-01T13:30:12;2.30;;;1.45;;
10074;SDS011;5076;42.680;23.288;2022-08-01T13:32:40;1.73;;;1.63;;
10074;SDS011;5076;42.680;23.288;2022-08-01T13:35:10;3.00;;;1.65;;
10074;SDS011;5076;42.680;23.288;2022-08-01T13:37:40;2.53;;;1.73;;
10074;SDS011;5076;42.680;23.288;2022-08-01T13:40:09;2.35;;;2.00;;
10074;SDS011;5076;42.680;23.288;2022-08-01T13:42:37;2.20;;;1.60;;
10074;SDS011;5076;42.680;23.288;2022-08-01T13:45:05;5.68;;;1.80;;
10074;SDS011;5076;42.680;23.288;2022-08-01T13:47:36;2.08;;;1.77;;
10074;SDS011;5076;42.680;23.288;2022-08-01T13:50:03;1.60;;;1.50;;
10074;SDS011;5076;42.680;23.288;2022-08-01T13:52:31;2.42;;;1.23;;
10074;SDS011;5076;42.680;23.288;2022-08-01T13:54:59;1.55;;;1.45;;
10074;SDS011;5076;42.680;23.288;2022-08-01T13:57:27;2.72;;;1.50;;
10074;SDS011;5076;42.680;23.288;2022-08-01T13:59:54;2.67;;;1.50;;
10074;SDS011;5076;42.680;23.288;2022-08-01T14:02:24;2.53;;;1.65;;
10074;SDS011;5076;42.680;23.288;2022-08-01T14:04:52;3.17;;;1.70;;
10074;SDS011;5076;42.680;23.288;2022-08-01T14:07:20;1.70;;;1.60;;
10074;SDS011;5076;42.680;23.288;2022-08-01T14:09:47;3.28;;;1.48;;
10074;SDS011;5076;42.680;23.288;2022-08-01T14:12:16;1.60;;;1.50;;
10074;SDS011;5076;42.680;23.288;2022-08-01T14:14:43;1.90;;;1.80;;
10074;SDS011;5076;42.680;23.288;2022-08-01T14:17:10;2.42;;;1.67;;
10074;SDS011;5076;42.680;23.288;2022-08-01T14:19:37;2.78;;;1.40;;
10074;SDS011;5076;42.680;23.288;2022-08-01T14:22:03;1.90;;;1.70;;
10074;SDS011;5076;42.680;23.288;2022-08-01T14:24:30;3.25;;;1.70;;
10074;SDS011;5076;42.680;23.288;2022-08-01T14:26:58;3.03;;;1.50;;
10074;SDS011;5076;42.680;23.288;2022-08-01T14:29:26;3.47;;;1.80;;
10074;SDS011;5076;42.680;23.288;2022-08-01T14:31:53;3.88;;;1.75;;
10074;SDS011;5076;42.680;23.288;2022-08-01T14:34:20;4.57;;;1.67;;
10074;SDS011;5076;42.680;23.288;2022-08-01T14:36:47;1.95;;;1.50;;
10074;SDS011;5076;42.680;23.288;2022-08-01T14:39:13;2.25;;;1.52;;
10074;SDS011;5076;42.680;23.288;2022-08-01T14:41:40;4.35;;;1.77;;
10074;SDS011;5076;42.680;23.288;2022-08-01T14:44:07;1.40;;;1.30;;
10074;SDS011;5076;42.680;23.288;2022-08-01T14:46:35;1.17;;;1.05;;
10074;SDS011;5076;42.680;23.288;2022-08-01T14:49:02;2.20;;;1.50;;
10074;SDS011;5076;42.680;23.288;2022-08-01T14:51:29;1.75;;;1.65;;
10074;SDS011;5076;42.680;23.288;2022-08-01T14:53:59;1.75;;;1.50;;
10074;SDS011;5076;42.680;23.288;2022-08-01T14:56:26;1.50;;;1.40;;
10074;SDS011;5076;42.680;23.288;2022-08-01T14:58:53;2.53;;;1.40;;
10074;SDS011;5076;42.680;23.288;2022-08-01T15:01:20;4.43;;;1.73;;
10074;SDS011;5076;42.680;23.288;2022-08-01T15:03:48;2.08;;;1.65;;
10074;SDS011;5076;42.680;23.288;2022-08-01T15:06:16;6.15;;;4.50;;
10074;SDS011;5076;42.680;23.288;2022-08-01T15:08:43;2.47;;;1.65;;